createdAt,value
2017-12-03T00:02:18.218Z,27.98
2017-12-03T00:04:55.786Z,42.92
2017-12-03T00:07:31.262Z,25.08
2017-12-03T00:10:08.636Z,23.12
2017-12-03T00:12:46.264Z,38.22
2017-12-03T00:15:26.604Z,28.00
2017-12-03T00:18:08.371Z,34.95
2017-12-03T00:20:52.329Z,24.20
2017-12-03T00:23:27.588Z,20.98
2017-12-03T00:28:48.912Z,25.85
2017-12-03T00:31:33.788Z,36.72
2017-12-03T00:34:10.619Z,29.73
2017-12-03T00:36:45.914Z,22.83
2017-12-03T00:39:23.425Z,31.20
2017-12-03T00:42:01.755Z,43.42
2017-12-03T00:44:39.920Z,22.48
2017-12-03T00:50:06.756Z,22.73
2017-12-03T00:52:45.962Z,43.40
2017-12-03T00:55:25.996Z,23.55
2017-12-03T00:58:05.966Z,23.92
2017-12-03T01:00:41.449Z,28.42
2017-12-03T01:03:20.384Z,27.50
2017-12-03T01:05:57.482Z,32.20
2017-12-03T01:08:42.698Z,23.92
2017-12-03T01:11:26.383Z,39.42
2017-12-03T01:14:04.925Z,21.85
2017-12-03T01:16:43.496Z,22.67
2017-12-03T01:19:20.890Z,20.00
2017-12-03T01:22:04.815Z,22.65
2017-12-03T01:24:47.221Z,15.48
2017-12-03T01:27:22.758Z,16.77
2017-12-03T01:32:46.719Z,17.00
2017-12-03T01:35:24.368Z,21.10
2017-12-03T01:38:01.796Z,20.70
2017-12-03T01:40:36.573Z,20.77
2017-12-03T01:43:11.714Z,19.62
2017-12-03T01:45:47.073Z,24.55
2017-12-03T01:48:23.195Z,19.48
2017-12-03T01:53:46.489Z,27.95
2017-12-03T01:56:21.788Z,23.38
2017-12-03T01:59:02.008Z,16.30
2017-12-03T02:01:39.083Z,28.42
2017-12-03T02:04:13.859Z,15.60
2017-12-03T02:06:57.900Z,18.08
2017-12-03T02:09:34.413Z,12.50
2017-12-03T02:12:09.327Z,15.55
2017-12-03T02:14:47.945Z,23.60
2017-12-03T02:17:27.108Z,17.50
2017-12-03T02:20:06.035Z,19.25
2017-12-03T02:22:47.130Z,18.52
2017-12-03T02:25:25.619Z,12.68
2017-12-03T02:28:05.754Z,13.50
2017-12-03T02:30:49.312Z,24.35
2017-12-03T02:33:27.637Z,23.87
2017-12-03T02:36:04.491Z,14.30
2017-12-03T02:38:46.054Z,18.65
2017-12-03T02:41:31.836Z,19.98
2017-12-03T02:44:10.216Z,35.63
2017-12-03T02:46:48.555Z,19.25
2017-12-03T02:49:24.691Z,22.02
2017-12-03T02:52:07.654Z,34.20
2017-12-03T02:54:45.659Z,12.82
2017-12-03T02:57:24.819Z,13.55
2017-12-03T03:00:06.035Z,12.00
2017-12-03T03:02:46.812Z,17.75
2017-12-03T03:05:24.665Z,15.88
2017-12-03T03:08:01.744Z,26.40
2017-12-03T03:10:45.583Z,21.62
2017-12-03T03:13:32.999Z,19.10
2017-12-03T03:16:08.535Z,15.82
2017-12-03T03:18:43.708Z,17.90
2017-12-03T03:21:23.933Z,23.45
2017-12-03T03:24:00.372Z,17.65
2017-12-03T03:26:37.159Z,38.13
2017-12-03T03:29:20.994Z,32.17
2017-12-03T03:32:00.360Z,22.67
2017-12-03T03:34:41.632Z,26.10
2017-12-03T03:37:21.095Z,19.20
2017-12-03T03:40:06.762Z,14.48
2017-12-03T03:42:41.174Z,15.77
2017-12-03T03:45:15.123Z,34.97
2017-12-03T03:47:49.721Z,18.87
2017-12-03T03:50:25.557Z,15.10
2017-12-03T03:52:59.496Z,12.85
2017-12-03T03:55:34.287Z,17.15
2017-12-03T03:58:12.582Z,14.80
2017-12-03T04:00:47.654Z,14.35
2017-12-03T04:03:34.218Z,18.60
2017-12-03T04:06:08.283Z,12.68
2017-12-03T04:08:42.706Z,17.55
2017-12-03T04:11:28.265Z,25.65
2017-12-03T04:14:06.083Z,18.95
2017-12-03T04:16:44.691Z,24.80
2017-12-03T04:19:21.431Z,22.00
2017-12-03T04:21:57.836Z,13.00
2017-12-03T04:24:33.560Z,12.48
2017-12-03T04:27:12.469Z,18.20
2017-12-03T04:29:47.566Z,13.52
2017-12-03T04:32:21.175Z,14.02
2017-12-03T04:34:54.976Z,15.40
2017-12-03T04:37:28.818Z,15.27
2017-12-03T04:40:03.560Z,13.95
2017-12-03T04:42:37.535Z,15.73
2017-12-03T04:45:12.104Z,17.12
2017-12-03T04:47:45.780Z,19.40
2017-12-03T04:50:19.635Z,15.70
2017-12-03T04:52:54.287Z,15.68
2017-12-03T04:55:28.551Z,17.40
2017-12-03T04:58:02.214Z,14.25
2017-12-03T05:00:37.197Z,16.05
2017-12-03T05:03:10.967Z,17.17
2017-12-03T05:05:45.905Z,14.40
2017-12-03T05:08:20.665Z,16.98
2017-12-03T05:10:55.649Z,34.35
2017-12-03T05:13:32.116Z,19.05
2017-12-03T05:16:07.942Z,16.95
2017-12-03T05:18:43.462Z,21.45
2017-12-03T05:21:19.124Z,19.30
2017-12-03T05:23:53.883Z,22.42
2017-12-03T05:26:28.582Z,17.58
2017-12-03T05:29:02.610Z,14.35
2017-12-03T05:31:39.175Z,13.32
2017-12-03T05:34:14.750Z,14.77
2017-12-03T05:36:52.132Z,13.55
2017-12-03T05:39:26.850Z,15.20
2017-12-03T05:42:04.526Z,12.90
2017-12-03T05:44:39.890Z,13.45
2017-12-03T05:47:14.913Z,13.77
2017-12-03T05:49:49.934Z,18.25
2017-12-03T05:52:25.091Z,11.18
2017-12-03T05:54:59.449Z,15.73
2017-12-03T05:57:34.509Z,17.75
2017-12-03T06:00:09.338Z,12.30
2017-12-03T06:02:43.503Z,11.27
2017-12-03T06:05:17.178Z,11.98
2017-12-03T06:07:51.324Z,16.58
2017-12-03T06:10:26.208Z,14.80
2017-12-03T06:13:01.040Z,12.18
2017-12-03T06:15:36.695Z,13.25
2017-12-03T06:18:12.261Z,12.73
2017-12-03T06:20:47.066Z,14.60
2017-12-03T06:23:23.065Z,16.25
2017-12-03T06:25:58.170Z,10.65
2017-12-03T06:28:33.083Z,10.85
2017-12-03T06:31:07.552Z,12.70
2017-12-03T06:33:42.539Z,13.07
2017-12-03T06:36:23.332Z,15.43
2017-12-03T06:38:57.307Z,13.82
2017-12-03T06:41:32.214Z,11.38
2017-12-03T06:44:06.649Z,13.40
2017-12-03T06:46:42.054Z,21.37
2017-12-03T06:49:17.385Z,15.20
2017-12-03T06:51:52.177Z,14.70
2017-12-03T06:54:27.374Z,17.95
2017-12-03T06:57:03.053Z,13.05
2017-12-03T06:59:38.814Z,14.02
2017-12-03T07:02:13.192Z,13.90
2017-12-03T07:04:49.062Z,16.90
2017-12-03T07:07:24.527Z,18.48
2017-12-03T07:10:00.073Z,14.40
2017-12-03T07:12:36.077Z,17.17
2017-12-03T07:15:11.170Z,16.37
2017-12-03T07:17:46.808Z,18.70
2017-12-03T07:20:22.013Z,13.95
2017-12-03T07:22:56.915Z,17.83
2017-12-03T07:25:33.296Z,25.30
2017-12-03T07:28:09.524Z,18.95
2017-12-03T07:30:44.901Z,24.52
2017-12-03T07:33:19.024Z,18.58
2017-12-03T07:35:53.484Z,16.85
2017-12-03T07:38:28.323Z,19.37
2017-12-03T07:41:03.326Z,17.80
2017-12-03T07:43:39.601Z,15.25
2017-12-03T07:46:14.733Z,19.55
2017-12-03T07:48:50.709Z,18.25
2017-12-03T07:51:28.680Z,13.43
2017-12-03T07:54:05.047Z,17.90
2017-12-03T07:56:41.045Z,16.08
2017-12-03T07:59:15.215Z,15.48
2017-12-03T08:01:49.621Z,17.50
2017-12-03T08:04:23.716Z,18.02
2017-12-03T08:06:58.030Z,16.87
2017-12-03T08:09:35.439Z,17.15
2017-12-03T08:12:09.810Z,23.87
2017-12-03T08:14:43.891Z,23.80
2017-12-03T08:17:17.670Z,22.08
2017-12-03T08:19:51.556Z,16.10
2017-12-03T08:22:26.787Z,11.75
2017-12-03T08:25:00.422Z,14.87
2017-12-03T08:27:34.273Z,15.35
2017-12-03T08:30:08.959Z,12.80
2017-12-03T08:32:43.445Z,33.63
2017-12-03T08:35:18.537Z,23.87
2017-12-03T08:37:55.207Z,16.37
2017-12-03T08:40:28.863Z,106.12
2017-12-03T08:43:03.452Z,148.38
2017-12-03T08:45:38.225Z,40.08
2017-12-03T08:48:12.462Z,21.77
2017-12-03T08:50:48.076Z,20.65
2017-12-03T08:53:21.727Z,17.60
2017-12-03T08:55:57.102Z,16.10
2017-12-03T08:58:30.841Z,14.57
2017-12-03T09:01:04.509Z,15.43
2017-12-03T09:03:38.693Z,21.17
2017-12-03T09:06:12.515Z,23.92
2017-12-03T09:08:46.330Z,11.98
2017-12-03T09:11:20.887Z,37.25
2017-12-03T09:13:54.786Z,15.73
2017-12-03T09:16:29.358Z,11.20
2017-12-03T09:19:03.180Z,16.92
2017-12-03T09:21:38.193Z,33.80
2017-12-03T09:24:11.965Z,10.48
2017-12-03T09:26:45.806Z,14.15
2017-12-03T09:29:21.472Z,13.20
2017-12-03T09:31:56.042Z,8.13
2017-12-03T09:34:29.892Z,7.85
2017-12-03T09:37:04.497Z,6.93
2017-12-03T09:39:39.470Z,73.87
2017-12-03T09:42:15.565Z,36.20
2017-12-03T09:44:49.338Z,7.78
2017-12-03T09:47:27.172Z,17.42
2017-12-03T09:50:03.949Z,25.88
2017-12-03T09:52:38.188Z,11.65
2017-12-03T09:55:12.027Z,5.80
2017-12-03T09:57:46.513Z,8.15
2017-12-03T10:00:21.807Z,12.48
2017-12-03T10:02:55.711Z,3.67
2017-12-03T10:05:30.314Z,5.30
2017-12-03T10:08:04.846Z,9.30
2017-12-03T10:10:38.751Z,13.20
2017-12-03T10:13:12.547Z,7.85
2017-12-03T10:15:46.316Z,5.05
2017-12-03T10:18:21.149Z,6.35
2017-12-03T10:20:54.936Z,24.10
2017-12-03T10:23:28.666Z,6.45
2017-12-03T10:26:02.381Z,4.15
2017-12-03T10:28:36.595Z,9.90
2017-12-03T10:31:10.306Z,6.00
2017-12-03T10:33:44.193Z,4.22
2017-12-03T10:36:18.034Z,3.55
2017-12-03T10:38:52.323Z,5.47
2017-12-03T10:41:26.102Z,7.70
2017-12-03T10:43:59.821Z,8.18
2017-12-03T10:46:33.698Z,8.63
2017-12-03T10:49:08.256Z,9.65
2017-12-03T10:51:42.006Z,6.68
2017-12-03T10:54:16.281Z,5.62
2017-12-03T10:56:49.907Z,6.28
2017-12-03T10:59:23.566Z,4.32
2017-12-03T11:01:57.188Z,4.72
2017-12-03T11:04:30.991Z,4.72
2017-12-03T11:07:04.593Z,3.78
2017-12-03T11:09:39.057Z,4.75
2017-12-03T11:12:13.673Z,9.30
2017-12-03T11:14:47.375Z,7.05
2017-12-03T11:17:20.974Z,7.05
2017-12-03T11:19:55.478Z,5.43
2017-12-03T11:22:29.108Z,4.30
2017-12-03T11:25:02.886Z,6.65
2017-12-03T11:27:37.554Z,6.55
2017-12-03T11:30:11.375Z,10.80
2017-12-03T11:32:45.933Z,17.55
2017-12-03T11:35:19.683Z,10.60
2017-12-03T11:37:53.419Z,9.60
2017-12-03T11:40:27.092Z,13.85
2017-12-03T11:43:00.677Z,22.00
2017-12-03T11:45:34.254Z,6.47
2017-12-03T11:48:07.859Z,10.52
2017-12-03T11:50:41.493Z,6.75
2017-12-03T11:53:16.091Z,6.65
2017-12-03T11:55:49.948Z,14.00
2017-12-03T11:58:24.543Z,17.45
2017-12-03T12:00:58.394Z,3.42
2017-12-03T12:03:32.898Z,7.95
2017-12-03T12:06:06.711Z,6.90
2017-12-03T12:08:40.387Z,16.15
2017-12-03T12:11:14.153Z,11.57
2017-12-03T12:13:47.890Z,9.88
2017-12-03T12:16:21.477Z,6.97
2017-12-03T12:18:56.223Z,13.85
2017-12-03T12:21:29.895Z,9.25
2017-12-03T12:24:03.480Z,7.47
2017-12-03T12:26:37.257Z,10.60
2017-12-03T12:29:10.880Z,12.07
2017-12-03T12:31:44.600Z,11.12
2017-12-03T12:34:18.745Z,19.92
2017-12-03T12:36:52.608Z,12.65
2017-12-03T12:39:26.289Z,10.93
2017-12-03T12:41:59.929Z,11.98
2017-12-03T12:44:33.658Z,10.57
2017-12-03T12:47:07.514Z,6.37
2017-12-03T12:49:41.165Z,5.80
2017-12-03T12:52:15.519Z,5.12
2017-12-03T12:54:49.254Z,7.40
2017-12-03T12:57:22.935Z,10.68
2017-12-03T12:59:57.266Z,5.20
2017-12-03T13:02:31.100Z,10.50
2017-12-03T13:05:05.564Z,16.20
2017-12-03T13:07:39.288Z,8.35
2017-12-03T13:10:12.877Z,9.18
2017-12-03T13:12:46.771Z,10.23
2017-12-03T13:15:20.449Z,8.27
2017-12-03T13:17:54.213Z,12.98
2017-12-03T13:20:27.846Z,6.30
2017-12-03T13:23:01.510Z,6.07
2017-12-03T13:25:36.172Z,10.40
2017-12-03T13:28:09.962Z,11.02
2017-12-03T13:30:43.541Z,12.55
2017-12-03T13:33:17.430Z,7.68
2017-12-03T13:35:51.191Z,8.18
2017-12-03T13:38:25.053Z,9.48
2017-12-03T13:40:59.372Z,7.60
2017-12-03T13:43:33.751Z,11.73
2017-12-03T13:46:07.550Z,11.90
2017-12-03T13:48:41.375Z,8.55
2017-12-03T13:51:16.123Z,8.93
2017-12-03T13:53:49.830Z,9.45
2017-12-03T13:56:23.443Z,9.35
2017-12-03T13:58:58.896Z,4.65
2017-12-03T14:01:32.668Z,26.83
2017-12-03T14:04:07.258Z,9.77
2017-12-03T14:06:41.093Z,6.15
2017-12-03T14:09:15.647Z,7.60
2017-12-03T14:11:49.344Z,12.52
2017-12-03T14:14:23.152Z,13.60
2017-12-03T14:16:56.693Z,17.42
2017-12-03T14:19:30.490Z,9.95
2017-12-03T14:22:04.137Z,7.07
2017-12-03T14:24:39.121Z,11.85
2017-12-03T14:27:12.873Z,5.43
2017-12-03T14:29:46.757Z,6.90
2017-12-03T14:32:20.577Z,4.82
2017-12-03T14:34:54.375Z,7.28
2017-12-03T14:37:27.933Z,7.57
2017-12-03T14:40:01.751Z,9.45
2017-12-03T14:42:35.459Z,7.65
2017-12-03T14:45:09.303Z,6.00
2017-12-03T14:47:43.244Z,5.35
2017-12-03T14:50:16.975Z,6.85
2017-12-03T14:52:50.790Z,10.60
2017-12-03T14:55:24.465Z,9.45
2017-12-03T14:57:58.208Z,8.55
2017-12-03T15:00:31.903Z,9.25
2017-12-03T15:03:05.492Z,8.93
2017-12-03T15:05:39.184Z,9.90
2017-12-03T15:08:12.925Z,11.57
2017-12-03T15:10:46.856Z,13.90
2017-12-03T15:13:21.637Z,13.13
2017-12-03T15:15:55.373Z,11.95
2017-12-03T15:18:29.182Z,8.82
2017-12-03T15:21:03.647Z,11.38
2017-12-03T15:23:37.466Z,13.10
2017-12-03T15:26:12.140Z,11.30
2017-12-03T15:28:45.914Z,14.32
2017-12-03T15:31:20.479Z,25.02
2017-12-03T15:33:54.351Z,14.40
2017-12-03T15:36:28.127Z,40.88
2017-12-03T15:39:02.652Z,22.52
2017-12-03T15:41:36.521Z,28.33
2017-12-03T15:44:10.396Z,22.10
2017-12-03T15:46:44.010Z,14.00
2017-12-03T15:49:17.619Z,17.75
2017-12-03T15:51:51.216Z,23.17
2017-12-03T15:54:24.845Z,22.60
2017-12-03T15:56:58.446Z,25.42
2017-12-03T15:59:32.284Z,20.90
2017-12-03T16:02:06.791Z,17.77
2017-12-03T16:04:41.510Z,11.32
2017-12-03T16:07:15.170Z,8.85
2017-12-03T16:09:48.985Z,15.27
2017-12-03T16:12:22.853Z,20.05
2017-12-03T16:14:56.780Z,14.30
2017-12-03T16:17:30.572Z,19.12
2017-12-03T16:20:04.851Z,18.40
2017-12-03T16:22:39.164Z,14.02
2017-12-03T16:25:12.742Z,9.82
2017-12-03T16:27:46.587Z,12.45
2017-12-03T16:30:20.444Z,11.30
2017-12-03T16:32:54.112Z,10.38
2017-12-03T16:35:27.913Z,14.32
2017-12-03T16:38:01.625Z,11.00
2017-12-03T16:40:35.355Z,14.20
2017-12-03T16:43:09.165Z,13.80
2017-12-03T16:45:43.290Z,12.70
2017-12-03T16:48:17.025Z,13.98
2017-12-03T16:50:51.600Z,19.20
2017-12-03T16:53:25.321Z,22.08
2017-12-03T16:55:59.679Z,31.98
2017-12-03T16:58:33.390Z,30.67
2017-12-03T17:01:22.053Z,37.42
2017-12-03T17:03:56.480Z,22.45
2017-12-03T17:06:30.169Z,21.02
2017-12-03T17:09:04.044Z,44.88
2017-12-03T17:11:37.838Z,41.28
2017-12-03T17:14:11.622Z,31.73
2017-12-03T17:16:46.032Z,18.50
2017-12-03T17:19:19.761Z,23.27
2017-12-03T17:21:53.329Z,17.70
2017-12-03T17:24:27.000Z,28.73
2017-12-03T17:27:00.655Z,28.80
2017-12-03T17:29:35.155Z,135.00
2017-12-03T17:32:08.772Z,159.07
2017-12-03T17:34:42.614Z,158.27
2017-12-03T17:37:17.173Z,111.93
2017-12-03T17:39:50.925Z,100.00
2017-12-03T17:42:24.650Z,80.18
2017-12-03T17:44:58.432Z,48.15
2017-12-03T17:47:32.254Z,41.50
2017-12-03T17:50:06.052Z,103.97
2017-12-03T17:52:39.815Z,80.75
2017-12-03T17:55:14.334Z,80.07
2017-12-03T17:57:47.979Z,39.53
2017-12-03T18:00:21.751Z,100.43
2017-12-03T18:02:55.357Z,57.28
2017-12-03T18:05:29.014Z,49.58
2017-12-03T18:08:02.564Z,48.67
2017-12-03T18:10:37.618Z,41.20
2017-12-03T18:13:11.287Z,38.05
2017-12-03T18:15:45.093Z,30.95
2017-12-03T18:18:18.712Z,18.20
2017-12-03T18:20:52.408Z,15.52
2017-12-03T18:23:26.232Z,17.20
2017-12-03T18:25:59.789Z,11.10
2017-12-03T18:28:33.496Z,11.50
2017-12-03T18:31:07.320Z,12.68
2017-12-03T18:33:41.032Z,14.32
2017-12-03T18:36:14.750Z,15.77
2017-12-03T18:38:48.371Z,13.25
2017-12-03T18:41:22.134Z,24.02
2017-12-03T18:43:55.911Z,39.63
2017-12-03T18:46:29.685Z,31.45
2017-12-03T18:49:04.222Z,20.65
2017-12-03T18:51:38.055Z,16.05
2017-12-03T18:54:11.822Z,10.43
2017-12-03T18:56:45.599Z,11.23
2017-12-03T18:59:20.097Z,12.65
2017-12-03T19:01:57.468Z,18.48
2017-12-03T19:04:31.083Z,14.32
2017-12-03T19:07:05.509Z,10.32
2017-12-03T19:09:39.122Z,12.05
2017-12-03T19:12:13.611Z,11.52
2017-12-03T19:14:48.237Z,11.50
2017-12-03T19:17:22.103Z,15.93
2017-12-03T19:19:55.866Z,10.15
2017-12-03T19:22:29.637Z,11.18
2017-12-03T19:25:03.392Z,15.07
2017-12-03T19:27:37.225Z,11.90
2017-12-03T19:30:10.851Z,9.80
2017-12-03T19:32:44.684Z,12.07
2017-12-03T19:35:18.356Z,14.52
2017-12-03T19:37:52.171Z,11.55
2017-12-03T19:40:25.799Z,18.90
2017-12-03T19:42:59.433Z,17.08
2017-12-03T19:45:33.367Z,16.30
2017-12-03T19:48:07.959Z,25.12
2017-12-03T19:50:41.819Z,18.52
2017-12-03T19:53:15.582Z,12.82
2017-12-03T19:55:49.486Z,18.17
2017-12-03T19:58:23.348Z,14.05
2017-12-03T20:00:57.906Z,19.08
2017-12-03T20:03:31.606Z,14.02
2017-12-03T20:06:05.174Z,14.23
2017-12-03T20:08:38.936Z,16.73
2017-12-03T20:11:12.524Z,14.87
2017-12-03T20:13:46.091Z,11.00
2017-12-03T20:16:19.633Z,32.90
2017-12-03T20:18:53.211Z,26.55
2017-12-03T20:21:26.836Z,15.23
2017-12-03T20:24:01.370Z,11.43
2017-12-03T20:26:34.984Z,14.23
2017-12-03T20:29:08.712Z,13.93
2017-12-03T20:31:42.289Z,18.23
2017-12-03T20:34:15.859Z,14.65
2017-12-03T20:36:49.411Z,19.60
2017-12-03T20:39:23.078Z,21.08
2017-12-03T20:41:56.746Z,14.35
2017-12-03T20:44:30.315Z,17.30
2017-12-03T20:47:03.883Z,31.05
2017-12-03T20:49:37.445Z,17.37
2017-12-03T20:52:11.858Z,24.63
2017-12-03T20:54:45.431Z,16.33
2017-12-03T20:57:19.193Z,28.50
2017-12-03T20:59:52.906Z,22.17
2017-12-03T21:02:26.537Z,19.45
2017-12-03T21:05:00.094Z,25.30
2017-12-03T21:07:33.600Z,27.02
2017-12-03T21:10:07.249Z,18.80
2017-12-03T21:12:40.881Z,18.40
2017-12-03T21:15:15.187Z,15.65
2017-12-03T21:17:49.677Z,17.83
2017-12-03T21:20:23.329Z,17.23
2017-12-03T21:22:57.017Z,21.20
2017-12-03T21:25:30.612Z,14.63
2017-12-03T21:28:04.163Z,16.87
2017-12-03T21:30:37.639Z,19.48
2017-12-03T21:33:11.337Z,18.55
2017-12-03T21:35:44.885Z,25.42
2017-12-03T21:38:18.763Z,22.48
2017-12-03T21:40:52.425Z,16.83
2017-12-03T21:43:26.147Z,20.83
2017-12-03T21:45:59.649Z,19.25
2017-12-03T21:48:33.262Z,17.98
2017-12-03T21:51:07.662Z,20.12
2017-12-03T21:53:42.089Z,20.10
2017-12-03T21:56:16.793Z,37.03
2017-12-03T21:58:50.416Z,24.70
2017-12-03T22:01:23.987Z,21.00
2017-12-03T22:03:57.725Z,31.33
2017-12-03T22:06:31.489Z,38.22
2017-12-03T22:09:08.742Z,40.17
2017-12-03T22:11:43.206Z,22.02
2017-12-03T22:14:16.797Z,16.52
2017-12-03T22:16:51.143Z,24.33
2017-12-03T22:19:24.857Z,21.77
2017-12-03T22:21:58.480Z,18.87
2017-12-03T22:24:32.027Z,18.87
2017-12-03T22:27:05.823Z,20.35
2017-12-03T22:29:39.370Z,23.00
2017-12-03T22:32:13.729Z,19.65
2017-12-03T22:34:47.459Z,16.95
2017-12-03T22:37:21.813Z,15.07
2017-12-03T22:39:55.382Z,17.25
2017-12-03T22:42:28.999Z,18.20
2017-12-03T22:45:02.572Z,15.60
2017-12-03T22:47:36.092Z,16.08
2017-12-03T22:50:09.709Z,14.87
2017-12-03T22:52:43.401Z,22.23
2017-12-03T22:55:18.887Z,18.30
2017-12-03T22:57:53.239Z,16.10
2017-12-03T23:00:34.329Z,16.50
2017-12-03T23:03:08.015Z,18.37
2017-12-03T23:05:41.567Z,14.13
2017-12-03T23:08:15.304Z,14.20
2017-12-03T23:10:49.647Z,19.95
2017-12-03T23:13:23.221Z,16.85
2017-12-03T23:15:57.666Z,16.55
2017-12-03T23:18:31.271Z,19.23
2017-12-03T23:21:05.828Z,15.45
2017-12-03T23:23:39.495Z,13.75
2017-12-03T23:26:13.230Z,12.43
2017-12-03T23:28:46.764Z,16.52
2017-12-03T23:31:20.343Z,16.25
2017-12-03T23:33:55.938Z,16.05
2017-12-03T23:36:29.501Z,17.08
2017-12-03T23:39:03.872Z,15.73
2017-12-03T23:41:37.447Z,19.83
2017-12-03T23:44:10.996Z,10.73
2017-12-03T23:46:44.709Z,14.65
2017-12-03T23:49:21.205Z,15.80
2017-12-03T23:51:55.024Z,19.30
2017-12-03T23:54:28.680Z,14.13
2017-12-03T23:57:02.266Z,12.25
2017-12-03T23:59:35.854Z,11.60
